sensor_id;sensor_type;location;lat;lon;timestamp;P1;durP1;ratioP1;P2;durP2;ratioP2
34876;SDS011;21086;44.780;17.194;2022-07-29T00:02:24;3.55;;;2.67;;
34876;SDS011;21086;44.780;17.194;2022-07-29T00:04:52;5.00;;;3.20;;
34876;SDS011;21086;44.780;17.194;2022-07-29T00:07:19;4.88;;;2.88;;
34876;SDS011;21086;44.780;17.194;2022-07-29T00:09:46;3.10;;;2.75;;
34876;SDS011;21086;44.780;17.194;2022-07-29T00:12:21;3.70;;;2.92;;
34876;SDS011;21086;44.780;17.194;2022-07-29T00:14:55;4.43;;;3.15;;
34876;SDS011;21086;44.780;17.194;2022-07-29T00:17:25;5.93;;;2.42;;
34876;SDS011;21086;44.780;17.194;2022-07-29T00:19:52;5.10;;;2.85;;
34876;SDS011;21086;44.780;17.194;2022-07-29T00:22:19;3.92;;;2.90;;
34876;SDS011;21086;44.780;17.194;2022-07-29T00:24:47;5.03;;;3.53;;
34876;SDS011;21086;44.780;17.194;2022-07-29T00:27:16;4.60;;;3.10;;
34876;SDS011;21086;44.780;17.194;2022-07-29T00:29:43;3.60;;;3.28;;
34876;SDS011;21086;44.780;17.194;2022-07-29T00:32:11;4.32;;;3.13;;
34876;SDS011;21086;44.780;17.194;2022-07-29T00:34:38;4.15;;;3.20;;
34876;SDS011;21086;44.780;17.194;2022-07-29T00:37:24;3.75;;;3.08;;
34876;SDS011;21086;44.780;17.194;2022-07-29T00:39:51;3.70;;;3.20;;
34876;SDS011;21086;44.780;17.194;2022-07-29T00:42:17;3.33;;;2.63;;
34876;SDS011;21086;44.780;17.194;2022-07-29T00:44:44;3.08;;;2.78;;
34876;SDS011;21086;44.780;17.194;2022-07-29T00:47:11;3.28;;;2.72;;
34876;SDS011;21086;44.780;17.194;2022-07-29T00:49:39;3.95;;;2.70;;
34876;SDS011;21086;44.780;17.194;2022-07-29T00:52:07;6.40;;;3.10;;
34876;SDS011;21086;44.780;17.194;2022-07-29T00:54:36;3.55;;;2.80;;
34876;SDS011;21086;44.780;17.194;2022-07-29T00:57:09;8.93;;;3.15;;
34876;SDS011;21086;44.780;17.194;2022-07-29T00:59:37;3.63;;;2.80;;
34876;SDS011;21086;44.780;17.194;2022-07-29T01:02:04;4.05;;;2.90;;
34876;SDS011;21086;44.780;17.194;2022-07-29T01:04:31;6.65;;;2.75;;
34876;SDS011;21086;44.780;17.194;2022-07-29T01:06:58;2.55;;;2.35;;
34876;SDS011;21086;44.780;17.194;2022-07-29T01:09:28;3.20;;;2.75;;
34876;SDS011;21086;44.780;17.194;2022-07-29T01:12:17;3.53;;;2.80;;
34876;SDS011;21086;44.780;17.194;2022-07-29T01:14:46;4.60;;;3.25;;
34876;SDS011;21086;44.780;17.194;2022-07-29T01:17:22;4.57;;;2.50;;
34876;SDS011;21086;44.780;17.194;2022-07-29T01:19:58;3.45;;;2.90;;
34876;SDS011;21086;44.780;17.194;2022-07-29T01:22:40;4.50;;;3.10;;
34876;SDS011;21086;44.780;17.194;2022-07-29T01:25:17;7.30;;;3.38;;
34876;SDS011;21086;44.780;17.194;2022-07-29T01:30:58;4.30;;;2.90;;
34876;SDS011;21086;44.780;17.194;2022-07-29T01:33:28;4.80;;;3.47;;
34876;SDS011;21086;44.780;17.194;2022-07-29T01:36:18;6.00;;;3.05;;
34876;SDS011;21086;44.780;17.194;2022-07-29T01:39:27;3.90;;;3.05;;
34876;SDS011;21086;44.780;17.194;2022-07-29T01:41:52;4.40;;;3.03;;
34876;SDS011;21086;44.780;17.194;2022-07-29T01:44:30;3.15;;;2.78;;
34876;SDS011;21086;44.780;17.194;2022-07-29T01:47:01;5.05;;;3.28;;
34876;SDS011;21086;44.780;17.194;2022-07-29T01:49:36;4.05;;;3.53;;
34876;SDS011;21086;44.780;17.194;2022-07-29T01:52:11;6.72;;;2.78;;
34876;SDS011;21086;44.780;17.194;2022-07-29T01:54:48;3.58;;;3.10;;
34876;SDS011;21086;44.780;17.194;2022-07-29T01:57:25;3.38;;;2.53;;
34876;SDS011;21086;44.780;17.194;2022-07-29T01:59:56;7.88;;;2.95;;
34876;SDS011;21086;44.780;17.194;2022-07-29T02:02:25;5.30;;;3.67;;
34876;SDS011;21086;44.780;17.194;2022-07-29T02:04:54;6.00;;;2.85;;
34876;SDS011;21086;44.780;17.194;2022-07-29T02:07:23;8.30;;;3.35;;
34876;SDS011;21086;44.780;17.194;2022-07-29T02:09:53;5.90;;;3.60;;
34876;SDS011;21086;44.780;17.194;2022-07-29T02:12:22;5.38;;;3.30;;
34876;SDS011;21086;44.780;17.194;2022-07-29T02:14:52;13.25;;;3.08;;
34876;SDS011;21086;44.780;17.194;2022-07-29T02:17:25;8.15;;;3.50;;
34876;SDS011;21086;44.780;17.194;2022-07-29T02:19:56;6.53;;;3.50;;
34876;SDS011;21086;44.780;17.194;2022-07-29T02:22:26;10.57;;;3.30;;
34876;SDS011;21086;44.780;17.194;2022-07-29T02:24:55;6.35;;;3.50;;
34876;SDS011;21086;44.780;17.194;2022-07-29T02:27:25;7.43;;;3.47;;
34876;SDS011;21086;44.780;17.194;2022-07-29T02:29:54;3.72;;;3.20;;
34876;SDS011;21086;44.780;17.194;2022-07-29T02:32:23;6.35;;;3.22;;
34876;SDS011;21086;44.780;17.194;2022-07-29T02:34:53;4.97;;;3.22;;
34876;SDS011;21086;44.780;17.194;2022-07-29T02:37:21;5.82;;;3.78;;
34876;SDS011;21086;44.780;17.194;2022-07-29T02:39:49;4.88;;;3.63;;
34876;SDS011;21086;44.780;17.194;2022-07-29T02:42:19;5.60;;;3.38;;
34876;SDS011;21086;44.780;17.194;2022-07-29T02:44:49;6.10;;;3.42;;
34876;SDS011;21086;44.780;17.194;2022-07-29T02:49:52;4.95;;;2.97;;
34876;SDS011;21086;44.780;17.194;2022-07-29T02:52:31;4.10;;;2.83;;
34876;SDS011;21086;44.780;17.194;2022-07-29T02:55:37;3.53;;;2.78;;
34876;SDS011;21086;44.780;17.194;2022-07-29T02:58:21;4.35;;;2.75;;
34876;SDS011;21086;44.780;17.194;2022-07-29T03:01:01;4.68;;;3.08;;
34876;SDS011;21086;44.780;17.194;2022-07-29T03:03:34;4.28;;;2.70;;
34876;SDS011;21086;44.780;17.194;2022-07-29T03:06:03;5.43;;;3.10;;
34876;SDS011;21086;44.780;17.194;2022-07-29T03:08:31;5.40;;;2.90;;
34876;SDS011;21086;44.780;17.194;2022-07-29T03:11:00;3.05;;;2.75;;
34876;SDS011;21086;44.780;17.194;2022-07-29T03:13:28;3.72;;;3.38;;
34876;SDS011;21086;44.780;17.194;2022-07-29T03:15:56;4.22;;;3.05;;
34876;SDS011;21086;44.780;17.194;2022-07-29T03:18:24;4.97;;;3.47;;
34876;SDS011;21086;44.780;17.194;2022-07-29T03:20:52;3.80;;;3.38;;
34876;SDS011;21086;44.780;17.194;2022-07-29T03:23:19;4.82;;;3.78;;
34876;SDS011;21086;44.780;17.194;2022-07-29T03:25:48;5.00;;;3.55;;
34876;SDS011;21086;44.780;17.194;2022-07-29T03:28:15;7.43;;;3.45;;
34876;SDS011;21086;44.780;17.194;2022-07-29T03:30:44;4.93;;;3.53;;
34876;SDS011;21086;44.780;17.194;2022-07-29T03:33:13;3.70;;;2.88;;
34876;SDS011;21086;44.780;17.194;2022-07-29T03:35:39;4.68;;;3.35;;
34876;SDS011;21086;44.780;17.194;2022-07-29T03:38:07;6.38;;;5.32;;
34876;SDS011;21086;44.780;17.194;2022-07-29T03:40:42;4.72;;;3.92;;
34876;SDS011;21086;44.780;17.194;2022-07-29T03:43:16;4.05;;;3.40;;
34876;SDS011;21086;44.780;17.194;2022-07-29T03:45:45;6.05;;;3.53;;
34876;SDS011;21086;44.780;17.194;2022-07-29T03:48:16;5.00;;;3.65;;
34876;SDS011;21086;44.780;17.194;2022-07-29T03:50:47;3.80;;;3.25;;
34876;SDS011;21086;44.780;17.194;2022-07-29T03:53:16;6.07;;;3.70;;
34876;SDS011;21086;44.780;17.194;2022-07-29T03:55:48;8.05;;;3.60;;
34876;SDS011;21086;44.780;17.194;2022-07-29T03:58:20;5.43;;;3.63;;
34876;SDS011;21086;44.780;17.194;2022-07-29T04:00:48;5.18;;;3.45;;
34876;SDS011;21086;44.780;17.194;2022-07-29T04:03:15;4.95;;;4.28;;
34876;SDS011;21086;44.780;17.194;2022-07-29T04:05:42;3.03;;;2.72;;
34876;SDS011;21086;44.780;17.194;2022-07-29T04:08:10;5.53;;;3.50;;
34876;SDS011;21086;44.780;17.194;2022-07-29T04:10:37;4.35;;;3.05;;
34876;SDS011;21086;44.780;17.194;2022-07-29T04:13:04;4.15;;;3.10;;
34876;SDS011;21086;44.780;17.194;2022-07-29T04:15:32;5.13;;;3.50;;
34876;SDS011;21086;44.780;17.194;2022-07-29T04:17:59;3.22;;;2.63;;
34876;SDS011;21086;44.780;17.194;2022-07-29T04:20:26;4.53;;;3.17;;
34876;SDS011;21086;44.780;17.194;2022-07-29T04:22:53;5.43;;;3.53;;
34876;SDS011;21086;44.780;17.194;2022-07-29T04:25:21;3.80;;;3.30;;
34876;SDS011;21086;44.780;17.194;2022-07-29T04:27:47;3.88;;;2.40;;
34876;SDS011;21086;44.780;17.194;2022-07-29T04:30:26;4.65;;;3.33;;
34876;SDS011;21086;44.780;17.194;2022-07-29T04:32:54;4.28;;;2.90;;
34876;SDS011;21086;44.780;17.194;2022-07-29T04:35:21;11.20;;;4.00;;
34876;SDS011;21086;44.780;17.194;2022-07-29T04:37:48;5.03;;;3.58;;
34876;SDS011;21086;44.780;17.194;2022-07-29T04:40:15;5.55;;;2.97;;
34876;SDS011;21086;44.780;17.194;2022-07-29T04:42:42;6.25;;;3.70;;
34876;SDS011;21086;44.780;17.194;2022-07-29T04:45:13;5.60;;;3.22;;
34876;SDS011;21086;44.780;17.194;2022-07-29T04:47:41;6.03;;;3.45;;
34876;SDS011;21086;44.780;17.194;2022-07-29T04:50:08;3.25;;;2.75;;
34876;SDS011;21086;44.780;17.194;2022-07-29T04:52:36;9.15;;;4.13;;
34876;SDS011;21086;44.780;17.194;2022-07-29T04:55:04;10.38;;;3.90;;
34876;SDS011;21086;44.780;17.194;2022-07-29T04:57:31;6.57;;;3.63;;
34876;SDS011;21086;44.780;17.194;2022-07-29T04:59:58;7.88;;;3.72;;
34876;SDS011;21086;44.780;17.194;2022-07-29T05:02:25;7.18;;;3.88;;
34876;SDS011;21086;44.780;17.194;2022-07-29T05:04:52;7.07;;;3.92;;
34876;SDS011;21086;44.780;17.194;2022-07-29T05:07:19;5.38;;;3.85;;
34876;SDS011;21086;44.780;17.194;2022-07-29T05:09:46;5.18;;;3.88;;
34876;SDS011;21086;44.780;17.194;2022-07-29T05:12:13;6.75;;;3.08;;
34876;SDS011;21086;44.780;17.194;2022-07-29T05:14:40;6.10;;;3.35;;
34876;SDS011;21086;44.780;17.194;2022-07-29T05:17:07;5.07;;;3.03;;
34876;SDS011;21086;44.780;17.194;2022-07-29T05:19:34;10.35;;;3.88;;
34876;SDS011;21086;44.780;17.194;2022-07-29T05:22:05;7.75;;;3.35;;
34876;SDS011;21086;44.780;17.194;2022-07-29T05:24:32;5.50;;;3.45;;
34876;SDS011;21086;44.780;17.194;2022-07-29T05:27:00;8.82;;;3.88;;
34876;SDS011;21086;44.780;17.194;2022-07-29T05:29:27;13.07;;;3.95;;
34876;SDS011;21086;44.780;17.194;2022-07-29T05:32:10;11.43;;;3.13;;
34876;SDS011;21086;44.780;17.194;2022-07-29T05:34:38;7.35;;;3.15;;
34876;SDS011;21086;44.780;17.194;2022-07-29T05:37:16;10.18;;;3.53;;
34876;SDS011;21086;44.780;17.194;2022-07-29T05:39:44;5.13;;;2.60;;
34876;SDS011;21086;44.780;17.194;2022-07-29T05:42:16;6.85;;;3.75;;
34876;SDS011;21086;44.780;17.194;2022-07-29T05:44:42;9.27;;;4.00;;
34876;SDS011;21086;44.780;17.194;2022-07-29T05:47:09;5.78;;;3.50;;
34876;SDS011;21086;44.780;17.194;2022-07-29T05:49:36;7.63;;;3.55;;
34876;SDS011;21086;44.780;17.194;2022-07-29T05:52:03;7.75;;;3.50;;
34876;SDS011;21086;44.780;17.194;2022-07-29T05:54:30;8.63;;;3.47;;
34876;SDS011;21086;44.780;17.194;2022-07-29T05:56:57;6.53;;;3.70;;
34876;SDS011;21086;44.780;17.194;2022-07-29T05:59:24;5.70;;;3.70;;
34876;SDS011;21086;44.780;17.194;2022-07-29T06:01:56;11.35;;;3.67;;
34876;SDS011;21086;44.780;17.194;2022-07-29T06:04:23;5.68;;;4.40;;
34876;SDS011;21086;44.780;17.194;2022-07-29T06:06:50;4.57;;;3.72;;
34876;SDS011;21086;44.780;17.194;2022-07-29T06:09:18;5.03;;;3.92;;
34876;SDS011;21086;44.780;17.194;2022-07-29T06:11:45;4.40;;;3.63;;
34876;SDS011;21086;44.780;17.194;2022-07-29T06:14:11;5.47;;;4.18;;
34876;SDS011;21086;44.780;17.194;2022-07-29T06:16:39;5.53;;;3.45;;
34876;SDS011;21086;44.780;17.194;2022-07-29T06:19:07;6.32;;;3.80;;
34876;SDS011;21086;44.780;17.194;2022-07-29T06:21:34;11.23;;;3.95;;
34876;SDS011;21086;44.780;17.194;2022-07-29T06:24:07;12.73;;;3.90;;
34876;SDS011;21086;44.780;17.194;2022-07-29T06:26:33;10.73;;;3.50;;
34876;SDS011;21086;44.780;17.194;2022-07-29T06:29:05;4.10;;;3.63;;
34876;SDS011;21086;44.780;17.194;2022-07-29T06:31:33;5.20;;;3.70;;
34876;SDS011;21086;44.780;17.194;2022-07-29T06:34:00;5.43;;;3.92;;
34876;SDS011;21086;44.780;17.194;2022-07-29T06:36:29;4.22;;;3.70;;
34876;SDS011;21086;44.780;17.194;2022-07-29T06:38:56;8.23;;;3.95;;
34876;SDS011;21086;44.780;17.194;2022-07-29T06:41:23;4.80;;;3.60;;
34876;SDS011;21086;44.780;17.194;2022-07-29T06:43:51;4.95;;;3.88;;
34876;SDS011;21086;44.780;17.194;2022-07-29T06:46:22;9.70;;;3.72;;
34876;SDS011;21086;44.780;17.194;2022-07-29T06:48:49;7.60;;;4.78;;
34876;SDS011;21086;44.780;17.194;2022-07-29T06:51:19;3.58;;;3.28;;
34876;SDS011;21086;44.780;17.194;2022-07-29T06:53:50;3.88;;;3.45;;
34876;SDS011;21086;44.780;17.194;2022-07-29T06:56:31;5.10;;;3.58;;
34876;SDS011;21086;44.780;17.194;2022-07-29T06:59:05;5.78;;;3.72;;
34876;SDS011;21086;44.780;17.194;2022-07-29T07:01:33;6.78;;;3.95;;
34876;SDS011;21086;44.780;17.194;2022-07-29T07:04:01;4.85;;;3.70;;
34876;SDS011;21086;44.780;17.194;2022-07-29T07:06:28;5.15;;;3.85;;
34876;SDS011;21086;44.780;17.194;2022-07-29T07:08:56;8.27;;;4.00;;
34876;SDS011;21086;44.780;17.194;2022-07-29T07:11:23;5.28;;;3.95;;
34876;SDS011;21086;44.780;17.194;2022-07-29T07:13:50;5.45;;;3.95;;
34876;SDS011;21086;44.780;17.194;2022-07-29T07:16:17;6.22;;;3.78;;
34876;SDS011;21086;44.780;17.194;2022-07-29T07:18:43;10.80;;;4.05;;
34876;SDS011;21086;44.780;17.194;2022-07-29T07:21:11;5.63;;;3.78;;
34876;SDS011;21086;44.780;17.194;2022-07-29T07:23:44;6.00;;;3.97;;
34876;SDS011;21086;44.780;17.194;2022-07-29T07:26:12;5.18;;;3.97;;
34876;SDS011;21086;44.780;17.194;2022-07-29T07:28:39;6.15;;;4.03;;
34876;SDS011;21086;44.780;17.194;2022-07-29T07:31:06;4.25;;;3.72;;
34876;SDS011;21086;44.780;17.194;2022-07-29T07:33:32;8.15;;;3.97;;
34876;SDS011;21086;44.780;17.194;2022-07-29T07:36:00;4.20;;;3.20;;
34876;SDS011;21086;44.780;17.194;2022-07-29T07:38:27;4.63;;;3.05;;
34876;SDS011;21086;44.780;17.194;2022-07-29T07:40:53;7.40;;;3.70;;
34876;SDS011;21086;44.780;17.194;2022-07-29T07:43:20;6.80;;;3.33;;
34876;SDS011;21086;44.780;17.194;2022-07-29T07:45:48;5.32;;;3.50;;
34876;SDS011;21086;44.780;17.194;2022-07-29T07:48:15;3.80;;;3.30;;
34876;SDS011;21086;44.780;17.194;2022-07-29T07:50:42;5.20;;;3.70;;
34876;SDS011;21086;44.780;17.194;2022-07-29T07:53:10;5.57;;;3.65;;
34876;SDS011;21086;44.780;17.194;2022-07-29T07:55:43;8.73;;;3.95;;
34876;SDS011;21086;44.780;17.194;2022-07-29T07:58:30;7.10;;;3.72;;
34876;SDS011;21086;44.780;17.194;2022-07-29T08:00:57;4.20;;;3.63;;
34876;SDS011;21086;44.780;17.194;2022-07-29T08:03:24;5.63;;;3.97;;
34876;SDS011;21086;44.780;17.194;2022-07-29T08:05:51;4.07;;;3.67;;
34876;SDS011;21086;44.780;17.194;2022-07-29T08:08:18;7.20;;;4.20;;
34876;SDS011;21086;44.780;17.194;2022-07-29T08:10:45;7.28;;;3.90;;
34876;SDS011;21086;44.780;17.194;2022-07-29T08:13:19;3.92;;;3.45;;
34876;SDS011;21086;44.780;17.194;2022-07-29T08:15:47;5.63;;;3.72;;
34876;SDS011;21086;44.780;17.194;2022-07-29T08:18:26;7.47;;;4.50;;
34876;SDS011;21086;44.780;17.194;2022-07-29T08:20:56;5.88;;;3.60;;
34876;SDS011;21086;44.780;17.194;2022-07-29T08:23:24;4.32;;;3.72;;
34876;SDS011;21086;44.780;17.194;2022-07-29T08:26:11;5.85;;;3.80;;
34876;SDS011;21086;44.780;17.194;2022-07-29T08:28:40;4.30;;;3.90;;
34876;SDS011;21086;44.780;17.194;2022-07-29T08:31:11;8.68;;;3.92;;
34876;SDS011;21086;44.780;17.194;2022-07-29T08:33:39;5.35;;;3.13;;
34876;SDS011;21086;44.780;17.194;2022-07-29T08:36:05;4.13;;;3.50;;
34876;SDS011;21086;44.780;17.194;2022-07-29T08:38:33;4.22;;;3.70;;
34876;SDS011;21086;44.780;17.194;2022-07-29T08:41:00;3.50;;;3.20;;
34876;SDS011;21086;44.780;17.194;2022-07-29T08:43:28;7.20;;;3.50;;
34876;SDS011;21086;44.780;17.194;2022-07-29T08:45:55;5.47;;;3.85;;
34876;SDS011;21086;44.780;17.194;2022-07-29T08:48:22;3.97;;;3.28;;
34876;SDS011;21086;44.780;17.194;2022-07-29T08:50:54;4.65;;;3.42;;
34876;SDS011;21086;44.780;17.194;2022-07-29T08:53:23;4.75;;;3.50;;
34876;SDS011;21086;44.780;17.194;2022-07-29T08:55:53;6.40;;;2.90;;
34876;SDS011;21086;44.780;17.194;2022-07-29T08:58:20;5.40;;;3.58;;
34876;SDS011;21086;44.780;17.194;2022-07-29T09:00:54;5.55;;;3.70;;
34876;SDS011;21086;44.780;17.194;2022-07-29T09:03:24;4.82;;;3.78;;
34876;SDS011;21086;44.780;17.194;2022-07-29T09:05:51;5.65;;;3.50;;
34876;SDS011;21086;44.780;17.194;2022-07-29T09:08:19;4.53;;;3.45;;
34876;SDS011;21086;44.780;17.194;2022-07-29T09:10:46;5.03;;;3.20;;
34876;SDS011;21086;44.780;17.194;2022-07-29T09:13:14;8.32;;;3.80;;
34876;SDS011;21086;44.780;17.194;2022-07-29T09:15:42;5.80;;;3.50;;
34876;SDS011;21086;44.780;17.194;2022-07-29T09:18:08;4.22;;;3.50;;
34876;SDS011;21086;44.780;17.194;2022-07-29T09:20:55;5.47;;;3.30;;
34876;SDS011;21086;44.780;17.194;2022-07-29T09:23:40;5.00;;;3.53;;
34876;SDS011;21086;44.780;17.194;2022-07-29T09:26:09;4.15;;;3.03;;
34876;SDS011;21086;44.780;17.194;2022-07-29T09:28:36;4.32;;;3.17;;
34876;SDS011;21086;44.780;17.194;2022-07-29T09:31:08;3.90;;;2.75;;
34876;SDS011;21086;44.780;17.194;2022-07-29T09:33:35;4.70;;;3.13;;
34876;SDS011;21086;44.780;17.194;2022-07-29T09:36:06;3.40;;;3.00;;
34876;SDS011;21086;44.780;17.194;2022-07-29T09:38:35;4.13;;;3.00;;
34876;SDS011;21086;44.780;17.194;2022-07-29T09:41:03;5.22;;;2.63;;
34876;SDS011;21086;44.780;17.194;2022-07-29T09:43:33;3.85;;;2.72;;
34876;SDS011;21086;44.780;17.194;2022-07-29T09:46:12;7.30;;;2.67;;
34876;SDS011;21086;44.780;17.194;2022-07-29T09:48:41;3.58;;;2.50;;
34876;SDS011;21086;44.780;17.194;2022-07-29T09:51:18;4.65;;;2.90;;
34876;SDS011;21086;44.780;17.194;2022-07-29T09:53:53;5.47;;;3.60;;
34876;SDS011;21086;44.780;17.194;2022-07-29T09:56:28;6.45;;;3.00;;
34876;SDS011;21086;44.780;17.194;2022-07-29T09:59:07;4.57;;;2.30;;
34876;SDS011;21086;44.780;17.194;2022-07-29T10:01:34;4.70;;;2.70;;
34876;SDS011;21086;44.780;17.194;2022-07-29T10:04:02;6.38;;;2.53;;
34876;SDS011;21086;44.780;17.194;2022-07-29T10:06:30;4.10;;;2.50;;
34876;SDS011;21086;44.780;17.194;2022-07-29T10:09:17;3.92;;;2.78;;
34876;SDS011;21086;44.780;17.194;2022-07-29T10:12:02;3.78;;;2.45;;
34876;SDS011;21086;44.780;17.194;2022-07-29T10:14:37;9.57;;;2.55;;
34876;SDS011;21086;44.780;17.194;2022-07-29T10:17:05;3.05;;;2.40;;
34876;SDS011;21086;44.780;17.194;2022-07-29T10:19:33;4.13;;;2.40;;
34876;SDS011;21086;44.780;17.194;2022-07-29T10:22:04;4.32;;;2.47;;
34876;SDS011;21086;44.780;17.194;2022-07-29T10:24:33;4.07;;;2.08;;
34876;SDS011;21086;44.780;17.194;2022-07-29T10:27:02;3.70;;;2.33;;
34876;SDS011;21086;44.780;17.194;2022-07-29T10:29:30;4.63;;;2.22;;
34876;SDS011;21086;44.780;17.194;2022-07-29T10:40:26;2.88;;;2.40;;
34876;SDS011;21086;44.780;17.194;2022-07-29T10:43:23;4.50;;;2.00;;
34876;SDS011;21086;44.780;17.194;2022-07-29T10:45:57;2.67;;;2.15;;
34876;SDS011;21086;44.780;17.194;2022-07-29T10:48:26;4.55;;;2.10;;
34876;SDS011;21086;44.780;17.194;2022-07-29T10:53:22;2.50;;;2.28;;
34876;SDS011;21086;44.780;17.194;2022-07-29T10:55:51;5.32;;;2.60;;
34876;SDS011;21086;44.780;17.194;2022-07-29T10:58:19;5.60;;;2.95;;
34876;SDS011;21086;44.780;17.194;2022-07-29T11:00:50;3.53;;;2.45;;
34876;SDS011;21086;44.780;17.194;2022-07-29T11:06:16;2.53;;;2.33;;
34876;SDS011;21086;44.780;17.194;2022-07-29T11:11:45;4.95;;;2.67;;
34876;SDS011;21086;44.780;17.194;2022-07-29T11:14:17;3.08;;;2.40;;
34876;SDS011;21086;44.780;17.194;2022-07-29T11:16:58;4.03;;;2.28;;
34876;SDS011;21086;44.780;17.194;2022-07-29T11:19:31;3.85;;;2.42;;
34876;SDS011;21086;44.780;17.194;2022-07-29T11:22:00;3.60;;;2.50;;
34876;SDS011;21086;44.780;17.194;2022-07-29T11:24:28;9.75;;;2.58;;
34876;SDS011;21086;44.780;17.194;2022-07-29T11:27:17;5.72;;;2.70;;
34876;SDS011;21086;44.780;17.194;2022-07-29T11:29:52;4.10;;;2.20;;
34876;SDS011;21086;44.780;17.194;2022-07-29T11:32:22;3.35;;;2.30;;
34876;SDS011;21086;44.780;17.194;2022-07-29T11:43:55;2.88;;;2.42;;
34876;SDS011;21086;44.780;17.194;2022-07-29T11:49:20;3.08;;;1.90;;
34876;SDS011;21086;44.780;17.194;2022-07-29T11:51:58;6.80;;;2.90;;
34876;SDS011;21086;44.780;17.194;2022-07-29T11:54:31;3.58;;;2.50;;
34876;SDS011;21086;44.780;17.194;2022-07-29T11:57:19;6.85;;;2.70;;
34876;SDS011;21086;44.780;17.194;2022-07-29T11:59:47;3.53;;;2.30;;
34876;SDS011;21086;44.780;17.194;2022-07-29T12:02:16;2.95;;;2.42;;
34876;SDS011;21086;44.780;17.194;2022-07-29T12:05:03;4.22;;;2.55;;
34876;SDS011;21086;44.780;17.194;2022-07-29T12:07:37;3.38;;;2.28;;
34876;SDS011;21086;44.780;17.194;2022-07-29T12:10:12;4.43;;;2.38;;
34876;SDS011;21086;44.780;17.194;2022-07-29T12:12:55;3.55;;;2.55;;
34876;SDS011;21086;44.780;17.194;2022-07-29T12:15:22;6.18;;;2.60;;
34876;SDS011;21086;44.780;17.194;2022-07-29T12:18:10;3.78;;;2.58;;
34876;SDS011;21086;44.780;17.194;2022-07-29T12:20:39;4.32;;;2.20;;
34876;SDS011;21086;44.780;17.194;2022-07-29T12:23:10;8.13;;;3.00;;
34876;SDS011;21086;44.780;17.194;2022-07-29T12:25:39;6.25;;;2.85;;
34876;SDS011;21086;44.780;17.194;2022-07-29T12:28:11;2.58;;;2.15;;
34876;SDS011;21086;44.780;17.194;2022-07-29T12:30:52;4.55;;;2.08;;
34876;SDS011;21086;44.780;17.194;2022-07-29T12:33:26;5.55;;;2.47;;
34876;SDS011;21086;44.780;17.194;2022-07-29T12:36:01;4.60;;;2.15;;
34876;SDS011;21086;44.780;17.194;2022-07-29T12:38:39;5.38;;;2.20;;
34876;SDS011;21086;44.780;17.194;2022-07-29T12:41:07;3.10;;;2.40;;
34876;SDS011;21086;44.780;17.194;2022-07-29T12:43:34;3.22;;;2.15;;
34876;SDS011;21086;44.780;17.194;2022-07-29T12:46:14;4.15;;;2.60;;
34876;SDS011;21086;44.780;17.194;2022-07-29T12:48:42;7.45;;;2.30;;
34876;SDS011;21086;44.780;17.194;2022-07-29T12:51:10;6.00;;;2.25;;
34876;SDS011;21086;44.780;17.194;2022-07-29T12:53:38;2.95;;;2.10;;
34876;SDS011;21086;44.780;17.194;2022-07-29T12:56:05;2.92;;;1.77;;
34876;SDS011;21086;44.780;17.194;2022-07-29T12:59:11;5.85;;;2.15;;
34876;SDS011;21086;44.780;17.194;2022-07-29T13:01:46;2.30;;;1.80;;
34876;SDS011;21086;44.780;17.194;2022-07-29T13:04:28;4.13;;;1.80;;
34876;SDS011;21086;44.780;17.194;2022-07-29T13:07:00;7.90;;;1.70;;
34876;SDS011;21086;44.780;17.194;2022-07-29T13:09:36;3.85;;;1.90;;
34876;SDS011;21086;44.780;17.194;2022-07-29T13:12:07;3.67;;;1.90;;
34876;SDS011;21086;44.780;17.194;2022-07-29T13:14:40;3.10;;;1.83;;
34876;SDS011;21086;44.780;17.194;2022-07-29T13:19:45;1.73;;;1.60;;
34876;SDS011;21086;44.780;17.194;2022-07-29T13:22:18;2.45;;;1.40;;
34876;SDS011;21086;44.780;17.194;2022-07-29T13:24:53;3.50;;;1.50;;
34876;SDS011;21086;44.780;17.194;2022-07-29T13:27:25;2.53;;;1.40;;
34876;SDS011;21086;44.780;17.194;2022-07-29T13:29:53;2.67;;;1.40;;
34876;SDS011;21086;44.780;17.194;2022-07-29T13:32:24;2.97;;;1.40;;
34876;SDS011;21086;44.780;17.194;2022-07-29T13:34:58;2.58;;;1.30;;
34876;SDS011;21086;44.780;17.194;2022-07-29T13:37:31;4.90;;;1.50;;
34876;SDS011;21086;44.780;17.194;2022-07-29T13:40:00;2.85;;;1.35;;
34876;SDS011;21086;44.780;17.194;2022-07-29T13:42:29;1.85;;;1.30;;
34876;SDS011;21086;44.780;17.194;2022-07-29T13:44:57;4.15;;;1.25;;
34876;SDS011;21086;44.780;17.194;2022-07-29T13:47:24;1.92;;;1.10;;
34876;SDS011;21086;44.780;17.194;2022-07-29T13:49:58;2.67;;;1.30;;
34876;SDS011;21086;44.780;17.194;2022-07-29T13:52:32;1.80;;;1.02;;
34876;SDS011;21086;44.780;17.194;2022-07-29T13:55:00;4.30;;;1.52;;
34876;SDS011;21086;44.780;17.194;2022-07-29T13:57:27;1.30;;;1.13;;
34876;SDS011;21086;44.780;17.194;2022-07-29T13:59:55;2.53;;;1.40;;
34876;SDS011;21086;44.780;17.194;2022-07-29T14:02:22;2.63;;;1.50;;
34876;SDS011;21086;44.780;17.194;2022-07-29T14:04:51;5.20;;;1.20;;
34876;SDS011;21086;44.780;17.194;2022-07-29T14:07:19;2.53;;;1.13;;
34876;SDS011;21086;44.780;17.194;2022-07-29T14:09:47;1.80;;;1.02;;
34876;SDS011;21086;44.780;17.194;2022-07-29T14:12:13;2.28;;;1.10;;
34876;SDS011;21086;44.780;17.194;2022-07-29T14:14:40;2.17;;;1.25;;
34876;SDS011;21086;44.780;17.194;2022-07-29T14:17:08;4.60;;;1.50;;
34876;SDS011;21086;44.780;17.194;2022-07-29T14:19:35;1.48;;;1.23;;
34876;SDS011;21086;44.780;17.194;2022-07-29T14:22:04;1.90;;;1.50;;
34876;SDS011;21086;44.780;17.194;2022-07-29T14:24:32;5.97;;;1.42;;
34876;SDS011;21086;44.780;17.194;2022-07-29T14:27:03;2.00;;;1.50;;
34876;SDS011;21086;44.780;17.194;2022-07-29T14:29:34;4.78;;;1.20;;
34876;SDS011;21086;44.780;17.194;2022-07-29T14:32:03;3.83;;;1.10;;
34876;SDS011;21086;44.780;17.194;2022-07-29T14:34:34;3.08;;;1.20;;
34876;SDS011;21086;44.780;17.194;2022-07-29T14:37:05;2.85;;;1.20;;
34876;SDS011;21086;44.780;17.194;2022-07-29T14:39:33;5.95;;;2.55;;
34876;SDS011;21086;44.780;17.194;2022-07-29T14:42:08;4.35;;;1.40;;
34876;SDS011;21086;44.780;17.194;2022-07-29T14:44:38;1.90;;;0.95;;
34876;SDS011;21086;44.780;17.194;2022-07-29T14:47:06;2.25;;;1.20;;
34876;SDS011;21086;44.780;17.194;2022-07-29T14:49:34;3.20;;;1.30;;
34876;SDS011;21086;44.780;17.194;2022-07-29T14:52:01;1.67;;;1.20;;
34876;SDS011;21086;44.780;17.194;2022-07-29T14:54:29;2.15;;;1.40;;
34876;SDS011;21086;44.780;17.194;2022-07-29T14:56:56;2.47;;;1.05;;
34876;SDS011;21086;44.780;17.194;2022-07-29T14:59:24;3.42;;;1.17;;
34876;SDS011;21086;44.780;17.194;2022-07-29T15:01:51;2.05;;;1.15;;
34876;SDS011;21086;44.780;17.194;2022-07-29T15:04:18;4.28;;;1.30;;
34876;SDS011;21086;44.780;17.194;2022-07-29T15:06:45;2.45;;;1.20;;
34876;SDS011;21086;44.780;17.194;2022-07-29T15:09:12;1.80;;;1.30;;
34876;SDS011;21086;44.780;17.194;2022-07-29T15:11:39;2.78;;;1.30;;
34876;SDS011;21086;44.780;17.194;2022-07-29T15:14:06;1.02;;;0.90;;
34876;SDS011;21086;44.780;17.194;2022-07-29T15:16:35;2.13;;;1.15;;
34876;SDS011;21086;44.780;17.194;2022-07-29T15:19:03;3.75;;;1.38;;
34876;SDS011;21086;44.780;17.194;2022-07-29T15:21:31;3.58;;;1.27;;
34876;SDS011;21086;44.780;17.194;2022-07-29T15:23:58;1.88;;;1.10;;
34876;SDS011;21086;44.780;17.194;2022-07-29T15:26:25;3.00;;;1.13;;
34876;SDS011;21086;44.780;17.194;2022-07-29T15:28:52;1.85;;;1.20;;
34876;SDS011;21086;44.780;17.194;2022-07-29T15:31:18;1.73;;;1.20;;